Time;durP1;ratioP1;P1;durP2;ratioP2;P2;SDS_P1;SDS_P2;PMS_P1;PMS_P2;Temp;Humidity;BMP_temperature;BMP_pressure;BME280_temperature;BME280_humidity;BME280_pressure;Samples;Min_cycle;Max_cycle;Signal;HPM_P1;HPM_P2
2022/03/22 00:00:59;;;;;;;41.73;22.90;;;5.60;99.90;;;;;;4897236;29;20068;-86
2022/03/22 00:03:25;;;;;;;40.87;23.57;;;5.60;99.90;;;;;;4897076;29;20080;-86
2022/03/22 00:05:51;;;;;;;41.23;23.30;;;5.50;99.90;;;;;;4896307;29;20498;-86
2022/03/22 00:08:18;;;;;;;41.90;23.60;;;5.50;99.90;;;;;;4883053;29;20577;-87
2022/03/22 00:10:44;;;;;;;42.67;23.83;;;5.40;99.90;;;;;;4900938;29;20045;-87
2022/03/22 00:13:10;;;;;;;41.10;23.57;;;5.40;99.90;;;;;;4899709;29;20100;-87
2022/03/22 00:15:36;;;;;;;42.50;23.37;;;5.40;99.90;;;;;;4900316;29;20055;-86
2022/03/22 00:18:02;;;;;;;43.07;24.50;;;5.40;99.90;;;;;;4900632;29;20040;-87
2022/03/22 00:20:28;;;;;;;41.30;24.00;;;5.40;99.90;;;;;;4882734;29;20460;-87
2022/03/22 00:22:54;;;;;;;41.27;23.33;;;5.30;99.90;;;;;;4883860;29;20080;-86
2022/03/22 00:25:20;;;;;;;42.97;23.87;;;5.30;99.90;;;;;;4900067;29;20049;-86
2022/03/22 00:27:57;;;;;;;43.63;24.23;;;5.50;99.90;;;;;;4900216;29;20047;-86
2022/03/22 00:30:28;;;;;;;42.67;24.30;;;5.20;99.90;;;;;;4900030;29;20508;-87
2022/03/22 00:32:56;;;;;;;44.60;24.10;;;5.20;99.90;;;;;;4900422;29;20044;-87
2022/03/22 00:35:35;;;;;;;42.20;24.10;;;5.20;99.90;;;;;;4899352;29;20048;-86
2022/03/22 00:38:03;;;;;;;44.00;24.07;;;5.10;99.90;;;;;;4883547;29;20056;-87
2022/03/22 00:40:29;;;;;;;44.07;24.30;;;5.10;99.90;;;;;;4899029;29;20539;-87
2022/03/22 00:42:55;;;;;;;46.80;25.00;;;5.10;99.90;;;;;;4899881;29;20139;-87
2022/03/22 00:45:25;;;;;;;42.80;24.27;;;5.10;99.90;;;;;;4882713;29;20064;-86
2022/03/22 00:47:52;;;;;;;42.77;24.00;;;5.10;99.90;;;;;;4882636;29;20044;-87
2022/03/22 00:50:21;;;;;;;47.73;24.60;;;5.10;99.90;;;;;;4899609;29;20045;-87
2022/03/22 00:52:47;;;;;;;42.80;25.13;;;5.00;99.90;;;;;;4899902;29;20124;-86
2022/03/22 00:55:13;;;;;;;41.63;23.93;;;5.10;99.90;;;;;;4881782;29;20040;-86
2022/03/22 00:57:40;;;;;;;41.40;24.20;;;5.00;99.90;;;;;;4900232;29;20056;-87
2022/03/22 01:00:11;;;;;;;42.80;25.33;;;5.00;99.90;;;;;;4883188;29;20105;-86
2022/03/22 01:02:42;;;;;;;43.03;24.00;;;5.00;99.90;;;;;;4882434;29;20690;-87
2022/03/22 01:05:17;;;;;;;43.10;23.97;;;4.90;99.90;;;;;;4882745;29;20060;-87
2022/03/22 01:07:45;;;;;;;44.77;25.20;;;4.80;99.90;;;;;;4882962;29;20136;-86
2022/03/22 01:10:13;;;;;;;42.70;25.30;;;4.80;99.90;;;;;;4898779;29;20049;-86
2022/03/22 01:12:40;;;;;;;44.83;24.40;;;4.80;99.90;;;;;;4882679;29;20048;-86
2022/03/22 01:15:10;;;;;;;41.33;24.30;;;4.80;99.90;;;;;;4882655;29;20045;-86
2022/03/22 01:17:36;;;;;;;42.80;24.47;;;4.70;99.90;;;;;;4882222;29;20373;-86
2022/03/22 01:20:05;;;;;;;43.77;24.97;;;4.80;99.90;;;;;;4882682;29;20633;-86
2022/03/22 01:22:32;;;;;;;43.47;24.20;;;5.70;99.90;;;;;;4898421;29;20049;-86
2022/03/22 01:24:59;;;;;;;43.90;25.07;;;4.70;99.90;;;;;;4882482;29;20095;-86
2022/03/22 01:27:26;;;;;;;42.47;25.13;;;4.70;99.90;;;;;;4899050;29;20044;-86
2022/03/22 01:29:52;;;;;;;40.80;25.30;;;4.70;99.90;;;;;;4881739;29;20377;-86
2022/03/22 01:32:17;;;;;;;46.73;24.83;;;4.60;99.90;;;;;;4882445;29;20081;-86
2022/03/22 01:34:43;;;;;;;43.43;23.87;;;4.60;99.90;;;;;;4898962;29;20072;-86
2022/03/22 01:37:10;;;;;;;45.63;25.63;;;4.60;99.90;;;;;;4898541;29;20087;-87
2022/03/22 01:39:35;;;;;;;44.67;25.20;;;4.60;99.90;;;;;;4881636;29;20412;-86
2022/03/22 01:42:01;;;;;;;41.77;24.10;;;4.60;99.90;;;;;;4899098;29;20044;-86
2022/03/22 01:44:28;;;;;;;43.20;24.37;;;4.60;99.90;;;;;;4880684;29;20389;-86
2022/03/22 01:47:03;;;;;;;45.97;25.50;;;4.60;99.90;;;;;;4898930;29;20056;-86
2022/03/22 01:49:29;;;;;;;45.20;26.27;;;4.60;99.90;;;;;;4881842;29;20041;-86
2022/03/22 01:51:55;;;;;;;44.20;25.20;;;4.50;99.90;;;;;;4881507;29;20115;-86
2022/03/22 01:54:21;;;;;;;45.20;25.60;;;4.50;99.90;;;;;;4881664;29;20107;-86
2022/03/22 01:56:47;;;;;;;45.77;25.93;;;4.50;99.90;;;;;;4898848;29;20048;-87
2022/03/22 01:59:13;;;;;;;42.43;24.07;;;4.40;99.90;;;;;;4896982;29;20124;-86
2022/03/22 02:07:10;;;;;;;43.83;26.53;;;4.50;99.90;;;;;;4881737;29;20049;-86
2022/03/22 02:09:35;;;;;;;42.77;24.90;;;4.40;99.90;;;;;;4898147;29;20050;-86
2022/03/22 02:12:01;;;;;;;43.83;25.13;;;4.40;99.90;;;;;;4880740;29;20044;-86
2022/03/22 02:14:27;;;;;;;44.07;24.77;;;4.40;99.90;;;;;;4881079;29;20411;-87
2022/03/22 02:16:52;;;;;;;42.43;24.10;;;4.40;99.90;;;;;;4881584;29;20076;-86
2022/03/22 02:19:18;;;;;;;44.23;25.47;;;4.40;99.90;;;;;;4880484;29;20087;-86
2022/03/22 02:21:45;;;;;;;44.23;24.77;;;4.40;99.90;;;;;;4881553;29;20154;-86
2022/03/22 02:24:11;;;;;;;46.30;25.77;;;4.30;99.90;;;;;;4898333;29;20075;-86
2022/03/22 02:26:39;;;;;;;44.10;25.70;;;4.30;99.90;;;;;;4897415;29;20480;-86
2022/03/22 02:29:05;;;;;;;43.53;24.93;;;4.30;99.90;;;;;;4880984;29;20049;-87
2022/03/22 02:31:31;;;;;;;46.77;25.33;;;4.30;99.90;;;;;;4880861;29;20052;-86
2022/03/22 02:33:58;;;;;;;45.67;25.80;;;4.30;99.90;;;;;;4881207;29;20044;-86
2022/03/22 02:36:23;;;;;;;42.53;24.97;;;4.30;99.90;;;;;;4881078;29;20522;-86
2022/03/22 02:38:51;;;;;;;42.60;25.67;;;4.30;99.90;;;;;;4899928;29;20077;-87
2022/03/22 02:41:21;;;;;;;44.43;25.10;;;4.30;99.90;;;;;;4880728;29;20060;-86
2022/03/22 02:43:48;;;;;;;46.13;25.17;;;4.20;99.90;;;;;;4897839;29;20071;-86
2022/03/22 02:46:14;;;;;;;44.07;25.13;;;4.20;99.90;;;;;;4880758;29;20056;-86
2022/03/22 02:48:41;;;;;;;43.07;25.20;;;4.20;99.90;;;;;;4880137;29;20045;-86
2022/03/22 02:51:07;;;;;;;43.77;25.57;;;4.10;99.90;;;;;;4898097;29;20092;-86
2022/03/22 02:53:33;;;;;;;43.13;24.77;;;4.10;99.90;;;;;;4897472;29;20089;-86
2022/03/22 02:55:59;;;;;;;43.40;25.37;;;4.10;99.90;;;;;;4896899;29;20076;-86
2022/03/22 02:58:24;;;;;;;42.73;25.93;;;4.10;99.90;;;;;;4897463;29;20128;-86
2022/03/22 03:00:50;;;;;;;44.40;25.20;;;4.00;99.90;;;;;;4891740;29;20508;-86
2022/03/22 03:03:20;;;;;;;45.43;25.63;;;4.00;99.90;;;;;;4877894;29;20049;-86
2022/03/22 03:05:47;;;;;;;41.43;24.73;;;4.00;99.90;;;;;;4861994;29;20136;-86
2022/03/22 03:08:13;;;;;;;44.37;25.20;;;4.00;99.90;;;;;;4878023;29;20049;-86
2022/03/22 03:10:38;;;;;;;45.57;24.97;;;4.00;99.90;;;;;;4878835;29;20060;-87
2022/03/22 03:13:05;;;;;;;46.47;25.10;;;3.90;99.90;;;;;;4878889;29;20049;-86
2022/03/22 03:15:31;;;;;;;43.20;25.23;;;3.90;99.90;;;;;;4878179;29;20053;-86
2022/03/22 03:17:57;;;;;;;44.70;25.80;;;3.90;99.90;;;;;;4878930;29;20372;-86
2022/03/22 03:20:23;;;;;;;42.47;24.47;;;3.90;99.90;;;;;;4861970;29;20049;-86
2022/03/22 03:22:49;;;;;;;42.47;25.37;;;3.90;99.90;;;;;;4878556;29;20053;-86
2022/03/22 03:25:15;;;;;;;42.87;24.53;;;3.80;99.90;;;;;;4878448;29;20037;-86
2022/03/22 03:27:40;;;;;;;44.13;24.70;;;3.90;99.90;;;;;;4878773;29;20477;-86
2022/03/22 03:30:07;;;;;;;41.47;24.40;;;3.90;99.90;;;;;;4878339;29;20049;-86
2022/03/22 03:32:34;;;;;;;44.73;25.03;;;3.80;99.90;;;;;;4861744;29;20520;-86
2022/03/22 03:35:00;;;;;;;44.83;24.93;;;3.70;99.90;;;;;;4878696;29;20064;-86
2022/03/22 03:37:31;;;;;;;43.43;25.53;;;3.70;99.90;;;;;;4877917;29;20120;-86
2022/03/22 03:39:56;;;;;;;43.50;26.00;;;3.70;99.90;;;;;;4861997;29;20097;-86
2022/03/22 03:42:22;;;;;;;44.27;23.97;;;3.70;99.90;;;;;;4863648;29;20446;-86
2022/03/22 03:47:31;;;;;;;47.10;24.88;;;3.60;99.90;;;;;;4882377;29;20055;-87
2022/03/22 03:50:03;;;;;;;46.07;26.03;;;3.60;99.90;;;;;;4882321;29;20515;-86
2022/03/22 03:52:31;;;;;;;49.77;25.53;;;3.60;99.90;;;;;;4881458;29;20049;-86
2022/03/22 03:54:58;;;;;;;45.87;26.37;;;3.60;99.90;;;;;;4882193;29;20049;-86
2022/03/22 03:57:24;;;;;;;43.53;24.80;;;3.60;99.90;;;;;;4864822;29;20064;-86
2022/03/22 03:59:51;;;;;;;45.47;25.53;;;3.60;99.90;;;;;;4882094;29;20400;-86
2022/03/22 04:02:18;;;;;;;45.00;26.40;;;3.60;99.90;;;;;;4865351;29;20457;-87
2022/03/22 04:04:44;;;;;;;48.67;25.60;;;3.60;99.90;;;;;;4881561;29;20128;-86
2022/03/22 04:07:12;;;;;;;44.37;25.20;;;3.50;99.90;;;;;;4865418;29;20072;-86
2022/03/22 04:09:39;;;;;;;49.33;26.37;;;3.50;99.90;;;;;;4881992;29;20123;-86
2022/03/22 04:12:05;;;;;;;47.43;25.70;;;3.50;99.90;;;;;;4881470;29;20120;-86
2022/03/22 04:14:31;;;;;;;47.27;26.00;;;3.40;99.90;;;;;;4864759;29;20063;-87
2022/03/22 04:16:57;;;;;;;46.00;26.03;;;3.40;99.90;;;;;;4881913;29;20048;-86
2022/03/22 04:19:24;;;;;;;45.07;25.87;;;3.40;99.90;;;;;;4880945;29;20142;-86
2022/03/22 04:21:50;;;;;;;44.23;25.80;;;3.30;99.90;;;;;;4881812;29;20048;-86
2022/03/22 04:24:15;;;;;;;45.47;25.07;;;3.40;99.90;;;;;;4864809;29;20051;-86
2022/03/22 04:26:43;;;;;;;48.73;25.37;;;3.30;99.90;;;;;;4880913;29;20053;-86
2022/03/22 04:34:40;;;;;;;48.73;26.43;;;3.20;99.90;;;;;;4880992;29;20045;-87
2022/03/22 04:37:12;;;;;;;49.37;28.27;;;3.20;99.90;;;;;;4881784;29;20108;-86
2022/03/22 04:39:39;;;;;;;46.93;26.53;;;3.20;99.90;;;;;;4881190;29;20053;-87
2022/03/22 04:42:05;;;;;;;49.50;28.27;;;3.20;99.90;;;;;;4881511;29;20045;-86
2022/03/22 04:44:31;;;;;;;49.33;27.50;;;3.20;99.90;;;;;;4880718;29;20175;-86
2022/03/22 04:46:57;;;;;;;45.87;26.37;;;3.20;99.90;;;;;;4863873;29;20515;-87
2022/03/22 04:49:24;;;;;;;46.37;26.63;;;3.20;99.90;;;;;;4880889;29;20541;-87
2022/03/22 04:57:20;;;;;;;50.73;27.50;;;3.10;99.90;;;;;;4864148;29;20147;-87
2022/03/22 04:59:45;;;;;;;51.27;27.80;;;3.10;99.90;;;;;;4881016;29;20511;-86
2022/03/22 05:02:12;;;;;;;49.00;27.57;;;3.10;99.90;;;;;;4873498;29;20100;-86
2022/03/22 05:04:38;;;;;;;49.33;28.27;;;3.10;99.90;;;;;;4893413;29;20661;-86
2022/03/22 05:07:04;;;;;;;50.40;28.43;;;3.10;99.90;;;;;;4899270;29;20052;-86
2022/03/22 05:09:30;;;;;;;51.43;28.67;;;3.10;99.90;;;;;;4898321;29;20056;-88
2022/03/22 05:11:59;;;;;;;45.50;27.63;;;3.20;99.90;;;;;;4899668;29;20048;-86
2022/03/22 05:14:25;;;;;;;52.80;28.87;;;3.10;99.90;;;;;;4899681;29;20052;-87
2022/03/22 05:16:51;;;;;;;55.33;29.93;;;3.10;99.90;;;;;;4897652;29;20503;-86
2022/03/22 05:19:18;;;;;;;52.83;29.37;;;3.10;99.90;;;;;;4899506;29;20119;-87
2022/03/22 05:21:44;;;;;;;50.87;29.37;;;3.10;99.90;;;;;;4898853;29;20052;-87
2022/03/22 05:24:11;;;;;;;56.00;29.83;;;3.10;99.90;;;;;;4899527;29;20503;-87
2022/03/22 05:26:36;;;;;;;53.23;29.70;;;3.10;99.90;;;;;;4899164;29;20059;-86
2022/03/22 05:29:05;;;;;;;52.70;30.13;;;3.10;99.90;;;;;;4899108;29;20045;-86
2022/03/22 05:31:32;;;;;;;53.93;29.80;;;3.10;99.90;;;;;;4899092;29;20053;-87
2022/03/22 05:33:58;;;;;;;52.27;28.93;;;3.10;99.90;;;;;;4898105;29;20399;-87
2022/03/22 05:36:24;;;;;;;55.83;31.07;;;3.00;99.90;;;;;;4898148;29;20158;-87
2022/03/22 05:38:50;;;;;;;52.77;28.77;;;3.00;99.90;;;;;;4897890;29;20088;-87
2022/03/22 05:41:15;;;;;;;52.67;28.37;;;3.00;99.90;;;;;;4898886;29;20041;-87
2022/03/22 05:43:42;;;;;;;52.87;27.93;;;3.00;99.90;;;;;;4908341;29;20060;-87
2022/03/22 05:46:09;;;;;;;54.43;29.00;;;3.00;99.90;;;;;;4900756;29;20063;-87
2022/03/22 05:48:38;;;;;;;51.77;29.27;;;3.00;99.90;;;;;;4917726;29;20092;-87
2022/03/22 05:51:04;;;;;;;51.23;28.03;;;3.00;99.90;;;;;;4900190;29;20055;-87
2022/03/22 05:53:30;;;;;;;49.27;26.93;;;2.30;99.90;;;;;;4917571;29;20036;-87
2022/03/22 05:55:55;;;;;;;51.47;27.53;;;3.00;99.90;;;;;;4917926;29;20470;-87
2022/03/22 05:58:21;;;;;;;48.77;26.50;;;3.10;99.90;;;;;;4916739;29;20040;-87
2022/03/22 06:00:47;;;;;;;44.33;25.37;;;3.20;99.90;;;;;;4917652;29;20566;-87
2022/03/22 06:03:13;;;;;;;50.33;27.47;;;3.30;99.90;;;;;;4917346;29;20387;-88
2022/03/22 06:05:39;;;;;;;48.63;27.17;;;3.50;99.90;;;;;;4915974;29;20056;-88
2022/03/22 06:08:05;;;;;;;46.83;26.87;;;3.60;99.90;;;;;;4900667;29;20156;-88
2022/03/22 06:10:30;;;;;;;44.63;25.63;;;3.70;99.90;;;;;;4917212;29;20058;-88
2022/03/22 06:12:57;;;;;;;47.07;24.97;;;3.80;99.90;;;;;;4916728;29;20044;-86
2022/03/22 06:15:29;;;;;;;43.67;24.47;;;3.90;99.90;;;;;;4899850;29;20499;-85
2022/03/22 06:18:04;;;;;;;47.67;24.53;;;4.10;99.90;;;;;;4899667;29;20048;-86
2022/03/22 06:20:37;;;;;;;43.23;24.47;;;4.20;99.90;;;;;;4917571;29;20131;-92
2022/03/22 06:23:24;;;;;;;42.20;23.80;;;4.30;99.90;;;;;;4902506;29;20052;-93
2022/03/22 06:25:52;;;;;;;43.47;23.23;;;5.30;99.90;;;;;;4919747;29;20480;-92
2022/03/22 06:28:18;;;;;;;43.97;24.03;;;5.30;99.90;;;;;;4923331;29;20135;-93
2022/03/22 06:30:44;;;;;;;42.47;24.20;;;5.50;99.90;;;;;;4927347;29;20054;-94
2022/03/22 06:33:17;;;;;;;40.93;24.07;;;4.60;99.90;;;;;;4921730;29;20459;-93
2022/03/22 06:35:44;;;;;;;41.70;23.27;;;4.40;99.90;;;;;;4904024;29;20083;-96
2022/03/22 06:38:13;;;;;;;40.67;23.37;;;5.50;99.90;;;;;;4922311;29;20040;-89
2022/03/22 06:40:39;;;;;;;42.80;22.73;;;4.50;99.90;;;;;;4900321;29;20048;-89
2022/03/22 06:43:12;;;;;;;37.70;20.80;;;4.80;99.90;;;;;;4917333;29;20052;-90
2022/03/22 06:45:38;;;;;;;35.53;20.67;;;6.20;99.90;;;;;;4918187;29;20044;-92
2022/03/22 06:48:23;;;;;;;34.13;21.10;;;6.90;99.90;;;;;;4917449;29;20063;-90
2022/03/22 06:50:51;;;;;;;36.23;20.57;;;5.50;99.90;;;;;;4930884;29;20040;-96
2022/03/22 06:53:38;;;;;;;37.70;21.07;;;6.00;99.90;;;;;;4919382;29;20040;-96
2022/03/22 06:56:14;;;;;;;35.30;20.37;;;5.80;99.90;;;;;;4905704;29;20040;-95
2022/03/22 06:58:42;;;;;;;38.07;21.80;;;5.90;99.90;;;;;;4903318;29;20497;-95
2022/03/22 07:01:10;;;;;;;35.07;20.27;;;6.40;99.90;;;;;;4917036;29;20136;-95
2022/03/22 07:03:36;;;;;;;36.73;20.93;;;6.00;99.90;;;;;;4894308;29;20060;-94
2022/03/22 07:06:06;;;;;;;36.07;20.30;;;6.00;99.90;;;;;;4876044;29;20076;-96
2022/03/22 07:08:32;;;;;;;39.47;21.10;;;7.20;99.90;;;;;;4870242;29;20077;-94
2022/03/22 07:14:00;;;;;;;34.67;20.23;;;7.70;99.90;;;;;;4870185;29;20033;-95
2022/03/22 07:16:27;;;;;;;37.97;20.70;;;7.20;99.90;;;;;;4863461;29;20052;-91
2022/03/22 07:18:53;;;;;;;33.90;20.50;;;7.20;99.90;;;;;;4880121;29;20057;-94
2022/03/22 07:21:29;;;;;;;35.23;21.10;;;6.70;99.90;;;;;;4876468;29;20409;-91
2022/03/22 07:23:58;;;;;;;33.90;19.67;;;7.00;99.90;;;;;;4879887;29;20085;-88
2022/03/22 07:26:27;;;;;;;33.83;19.47;;;7.80;99.90;;;;;;4878935;29;20053;-90
2022/03/22 07:29:02;;;;;;;34.27;20.27;;;7.00;99.90;;;;;;4877886;29;20045;-89
2022/03/22 07:31:31;;;;;;;34.37;20.83;;;8.20;99.90;;;;;;4878940;29;20379;-89
2022/03/22 07:34:05;;;;;;;34.60;20.63;;;8.40;99.90;;;;;;4887703;29;20052;-89
2022/03/22 07:36:31;;;;;;;34.63;20.48;;;8.10;99.90;;;;;;4866834;29;20937;-90
2022/03/22 07:39:00;;;;;;;33.40;19.67;;;8.50;99.90;;;;;;4879102;29;20045;-94
2022/03/22 07:41:28;;;;;;;33.00;20.00;;;7.60;99.90;;;;;;4888273;29;20048;-90
2022/03/22 07:43:54;;;;;;;35.20;20.23;;;8.30;99.90;;;;;;4896362;29;20053;-90
2022/03/22 07:46:22;;;;;;;34.33;19.93;;;7.90;99.90;;;;;;4897213;29;20052;-90
2022/03/22 07:48:51;;;;;;;37.50;21.13;;;9.10;99.90;;;;;;4897710;29;20075;-91
2022/03/22 07:54:15;;;;;;;33.60;20.17;;;8.10;99.90;;;;;;4922263;23;20520;-91
2022/03/22 07:56:41;;;;;;;31.20;19.67;;;9.80;99.90;;;;;;4898929;29;20052;-91
2022/03/22 07:59:15;;;;;;;33.27;20.50;;;8.60;99.90;;;;;;4899739;29;20139;-90
2022/03/22 08:01:41;;;;;;;35.07;20.30;;;8.40;99.90;;;;;;4899188;29;20052;-90
2022/03/22 08:04:12;;;;;;;31.25;20.02;;;10.10;99.90;;;;;;4917097;29;20494;-91
2022/03/22 08:06:41;;;;;;;34.13;20.15;;;9.00;99.90;;;;;;4899646;29;20131;-91
2022/03/22 08:09:15;;;;;;;32.90;20.27;;;9.10;99.90;;;;;;4916722;29;20175;-91
2022/03/22 08:11:43;;;;;;;33.97;21.23;;;9.00;99.90;;;;;;4898817;29;20048;-91
2022/03/22 08:14:09;;;;;;;31.42;20.35;;;9.90;99.90;;;;;;4899531;29;20487;-88
2022/03/22 08:16:41;;;;;;;32.10;20.73;;;8.80;99.90;;;;;;4915742;29;20053;-87
2022/03/22 08:19:19;;;;;;;33.60;20.83;;;9.40;99.90;;;;;;4891768;29;20041;-88
2022/03/22 08:21:48;;;;;;;32.30;20.15;;;9.30;99.90;;;;;;4918228;29;20048;-87
2022/03/22 08:24:14;;;;;;;33.40;19.65;;;9.20;99.90;;;;;;4900467;29;20052;-88
2022/03/22 08:26:46;;;;;;;31.65;20.27;;;9.60;99.90;;;;;;4915283;29;20051;-88
2022/03/22 08:29:29;;;;;;;32.60;21.15;;;9.90;99.90;;;;;;4918805;29;20091;-88
2022/03/22 08:31:57;;;;;;;34.17;19.88;;;10.40;99.90;;;;;;4919759;29;20492;-88
2022/03/22 08:34:38;;;;;;;31.52;19.75;;;10.60;99.90;;;;;;4901810;29;20052;-88
2022/03/22 08:37:25;;;;;;;32.22;19.10;;;10.30;99.90;;;;;;4919292;29;20048;-88
2022/03/22 08:40:03;;;;;;;32.88;18.83;;;10.70;99.90;;;;;;4918404;29;20044;-88
2022/03/22 08:42:45;;;;;;;32.63;19.13;;;10.70;99.90;;;;;;4918809;29;20099;-88
2022/03/22 08:45:53;;;;;;;30.17;18.73;;;10.90;99.90;;;;;;4902019;29;20052;-88
2022/03/22 08:48:39;;;;;;;33.60;19.65;;;11.10;99.90;;;;;;4896986;23;20040;-89
2022/03/22 08:51:11;;;;;;;28.75;17.90;;;11.60;99.90;;;;;;4864706;29;20139;-88
2022/03/22 08:53:55;;;;;;;29.23;18.10;;;11.60;99.90;;;;;;4863882;29;20052;-89
2022/03/22 08:56:24;;;;;;;30.05;18.85;;;11.30;99.90;;;;;;4866741;29;20049;-88
2022/03/22 08:58:53;;;;;;;28.05;17.83;;;12.30;99.90;;;;;;4878848;29;20073;-93
2022/03/22 09:01:30;;;;;;;29.55;17.30;;;11.40;99.90;;;;;;4900951;29;20048;-96
2022/03/22 09:07:04;;;;;;;27.17;17.73;;;11.80;99.90;;;;;;4898090;29;20044;-89
2022/03/22 09:09:39;;;;;;;28.42;17.10;;;12.30;99.90;;;;;;4899922;29;20052;-89
2022/03/22 09:12:20;;;;;;;29.48;16.92;;;12.00;99.90;;;;;;4883136;29;20528;-88
2022/03/22 09:14:55;;;;;;;27.88;17.15;;;11.40;99.90;;;;;;4881932;29;20049;-88
2022/03/22 09:17:27;;;;;;;27.35;16.75;;;11.80;99.90;;;;;;4884804;29;20053;-89
2022/03/22 09:27:00;;;;;;;28.08;16.92;;;11.40;99.90;;;;;;4873360;29;20507;-92
2022/03/22 09:36:02;;;;;;;25.92;16.02;;;13.10;99.90;;;;;;5303648;23;20835;-93
2022/03/22 09:39:05;;;;;;;26.63;17.15;;;12.80;99.90;;;;;;4919084;29;20051;-88
2022/03/22 09:41:41;;;;;;;26.70;16.63;;;14.80;99.90;;;;;;4853692;29;20136;-93
2022/03/22 10:01:34;;;;;;;27.95;17.13;;;14.00;99.90;;;;;;4961341;23;20337;-92
2022/03/22 10:04:35;;;;;;;26.23;16.15;;;13.90;99.90;;;;;;4891407;29;20052;-93
2022/03/22 10:08:07;;;;;;;27.67;16.98;;;14.40;99.90;;;;;;4842626;29;20060;-91
2022/03/22 10:11:09;;;;;;;26.02;16.73;;;14.50;99.90;;;;;;4899699;29;20055;-91
2022/03/22 10:14:15;;;;;;;26.73;15.68;;;14.10;99.90;;;;;;4915061;29;20048;-89
2022/03/22 10:19:52;;;;;;;26.15;17.20;;;14.80;99.90;;;;;;4898460;29;20068;-96
2022/03/22 10:29:34;;;;;;;27.42;17.10;;;15.50;99.90;;;;;;4914878;23;20080;-95
2022/03/22 10:32:03;;;;;;;25.88;16.65;;;15.80;99.90;;;;;;4899134;29;20058;-92
2022/03/22 10:34:38;;;;;;;29.33;18.05;;;15.90;99.90;;;;;;4899310;29;20045;-90
2022/03/22 10:37:13;;;;;;;25.58;17.35;;;16.00;99.90;;;;;;4901173;29;20044;-93
2022/03/22 10:39:40;;;;;;;26.83;17.83;;;16.20;99.90;;;;;;4915343;29;20100;-92
2022/03/22 10:44:58;;;;;;;29.17;18.23;;;16.40;99.90;;;;;;4937495;23;20064;-93
2022/03/22 10:48:16;;;;;;;25.58;17.73;;;17.80;99.90;;;;;;5199281;23;20035;-93
2022/03/22 10:50:51;;;;;;;25.98;17.42;;;16.70;99.90;;;;;;4916754;29;20500;-93
2022/03/22 10:53:39;;;;;;;27.38;18.13;;;17.70;99.90;;;;;;4900380;29;20080;-92
2022/03/22 10:56:16;;;;;;;24.60;17.63;;;17.50;99.90;;;;;;4916859;29;20120;-89
2022/03/22 10:58:51;;;;;;;26.35;18.17;;;18.50;99.90;;;;;;4916542;29;20032;-89
2022/03/22 11:01:28;;;;;;;26.30;18.65;;;17.20;99.90;;;;;;4916294;29;20080;-89
2022/03/22 11:03:56;;;;;;;26.13;18.58;;;17.30;99.90;;;;;;4916816;29;20531;-91
2022/03/22 11:06:30;;;;;;;25.45;18.20;;;17.50;99.90;;;;;;4915463;29;20047;-88
2022/03/22 11:09:00;;;;;;;27.13;18.58;;;18.50;99.90;;;;;;4916399;29;20044;-92
2022/03/22 11:14:08;;;;;;;27.00;17.35;;;18.00;99.90;;;;;;4922343;23;20052;-92
2022/03/22 11:16:39;;;;;;;25.58;18.05;;;18.10;99.90;;;;;;4930093;23;20143;-91
2022/03/22 11:19:11;;;;;;;25.55;18.15;;;18.20;99.90;;;;;;4929328;23;20067;-92
2022/03/22 11:22:27;;;;;;;27.48;18.35;;;16.90;99.90;;;;;;4888318;29;20099;-91
2022/03/22 11:25:31;;;;;;;24.88;17.20;;;18.60;99.90;;;;;;4886329;29;20466;-92
2022/03/22 11:28:08;;;;;;;24.58;16.90;;;18.70;99.90;;;;;;4879820;29;20056;-91
2022/03/22 11:30:39;;;;;;;25.98;18.20;;;18.90;99.90;;;;;;4868298;29;20049;-90
2022/03/22 11:37:06;;;;;;;25.73;17.88;;;18.90;99.70;;;;;;4923195;23;20063;-91
2022/03/22 11:43:11;;;;;;;26.98;17.92;;;19.10;97.30;;;;;;4898324;29;20056;-88
2022/03/22 11:48:16;;;;;;;23.02;16.90;;;19.30;99.40;;;;;;4926783;23;20056;-88
2022/03/22 11:50:44;;;;;;;24.63;17.92;;;19.30;96.90;;;;;;4940409;23;20044;-89
2022/03/22 11:53:22;;;;;;;25.92;16.95;;;20.60;97.70;;;;;;4916163;29;20051;-89
2022/03/22 11:55:53;;;;;;;24.42;18.38;;;20.80;97.40;;;;;;4915971;29;20055;-87
2022/03/22 11:58:35;;;;;;;24.27;17.35;;;20.30;96.60;;;;;;4916690;29;20135;-86
2022/03/22 12:01:15;;;;;;;27.35;18.73;;;20.00;96.80;;;;;;4899488;29;20048;-86
2022/03/22 12:03:51;;;;;;;25.45;17.45;;;19.90;95.00;;;;;;4917283;29;20551;-86
2022/03/22 12:06:33;;;;;;;26.05;17.20;;;20.20;93.90;;;;;;4919288;29;20475;-86
2022/03/22 12:09:11;;;;;;;22.90;15.93;;;20.70;95.30;;;;;;4922107;29;20044;-90
2022/03/22 12:11:49;;;;;;;24.17;16.38;;;20.20;93.60;;;;;;4893648;29;20048;-89
2022/03/22 12:14:26;;;;;;;23.95;16.08;;;21.30;94.80;;;;;;4910430;29;20041;-88
2022/03/22 12:17:15;;;;;;;23.45;16.60;;;21.00;93.90;;;;;;4911738;29;20108;-87
2022/03/22 12:20:01;;;;;;;23.77;16.52;;;20.50;94.20;;;;;;4909205;29;20060;-88
2022/03/22 12:22:43;;;;;;;24.98;17.85;;;19.70;93.30;;;;;;4893208;29;20126;-88
2022/03/22 12:25:17;;;;;;;26.40;16.73;;;21.30;93.80;;;;;;4890161;29;20046;-88
2022/03/22 12:30:18;;;;;;;24.23;15.93;;;20.40;92.30;;;;;;4915559;23;20052;-88
2022/03/22 12:32:52;;;;;;;25.73;17.45;;;21.60;94.20;;;;;;4892527;29;20062;-88
2022/03/22 12:36:09;;;;;;;25.45;17.45;;;20.60;91.60;;;;;;4898710;23;20048;-88
2022/03/22 12:39:26;;;;;;;25.48;17.70;;;20.70;92.60;;;;;;4887811;29;20054;-88
2022/03/22 12:41:52;;;;;;;25.10;17.25;;;20.50;92.10;;;;;;4906132;29;20056;-88
2022/03/22 12:44:18;;;;;;;25.30;17.77;;;20.30;92.70;;;;;;4908458;29;20095;-88
2022/03/22 12:46:50;;;;;;;23.98;16.98;;;21.10;92.70;;;;;;4892195;29;20052;-88
2022/03/22 12:49:28;;;;;;;25.08;17.30;;;20.70;91.60;;;;;;4892368;29;20481;-88
2022/03/22 12:52:10;;;;;;;27.08;17.80;;;18.80;91.10;;;;;;4906648;29;20076;-88
2022/03/22 12:54:40;;;;;;;25.48;17.85;;;21.80;92.10;;;;;;4911417;29;20048;-89
2022/03/22 12:57:11;;;;;;;26.50;18.55;;;21.70;92.50;;;;;;4901481;29;20412;-88
2022/03/22 12:59:40;;;;;;;27.10;19.40;;;20.60;90.10;;;;;;4917945;29;20048;-87
2022/03/22 13:02:15;;;;;;;25.42;18.52;;;21.10;91.40;;;;;;4901867;29;20138;-85
2022/03/22 13:04:55;;;;;;;26.13;18.52;;;20.70;87.20;;;;;;4901350;29;20059;-86
2022/03/22 13:25:33;;;;;;;;;;;;;;;;;;;;;
2022/03/22 13:32:30;;;;;;;28.00;17.52;;;20.50;86.20;;;;;;5213560;23;20060;-90
2022/03/22 13:38:05;;;;;;;27.73;17.70;;;20.90;90.50;;;;;;4918151;29;20147;-90
2022/03/22 13:41:06;;;;;;;25.27;18.55;;;20.60;86.50;;;;;;4923757;29;20048;-91
2022/03/22 13:49:50;;;;;;;28.80;18.38;;;21.30;90.40;;;;;;4916104;29;20055;-90
2022/03/22 13:52:36;;;;;;;23.90;17.48;;;22.50;87.90;;;;;;4918618;29;20052;-89
2022/03/22 13:55:19;;;;;;;26.13;18.88;;;21.50;84.50;;;;;;4911442;29;20048;-91
2022/03/22 13:57:54;;;;;;;26.15;18.55;;;21.50;86.40;;;;;;4920702;29;20047;-88
2022/03/22 14:00:20;;;;;;;26.15;19.23;;;21.80;85.30;;;;;;4901187;29;20377;-88
2022/03/22 14:02:52;;;;;;;26.10;19.30;;;21.20;86.30;;;;;;4901946;29;20505;-88
2022/03/22 14:05:23;;;;;;;25.65;18.55;;;22.00;86.40;;;;;;4917727;29;20102;-90
2022/03/22 14:07:57;;;;;;;27.73;19.92;;;22.80;86.40;;;;;;4901082;29;20055;-90
2022/03/22 14:10:24;;;;;;;25.25;19.00;;;22.00;84.70;;;;;;4900056;29;20543;-89
2022/03/22 14:12:50;;;;;;;25.50;19.50;;;22.00;84.90;;;;;;4903044;29;20139;-90
2022/03/22 14:15:20;;;;;;;25.02;17.73;;;22.50;85.80;;;;;;4906908;23;20191;-90
2022/03/22 14:17:52;;;;;;;26.13;17.75;;;22.10;85.10;;;;;;4880306;29;20052;-90
2022/03/22 14:20:23;;;;;;;25.20;18.27;;;22.00;85.10;;;;;;4883307;29;20135;-90
2022/03/22 14:22:54;;;;;;;23.73;18.77;;;22.90;84.90;;;;;;4899024;29;20044;-89
2022/03/22 14:25:23;;;;;;;24.92;19.27;;;22.30;85.20;;;;;;4912095;23;20059;-89
2022/03/22 14:27:55;;;;;;;24.23;18.70;;;22.70;85.60;;;;;;4916994;29;20058;-90
2022/03/22 14:30:39;;;;;;;25.65;18.88;;;21.80;80.80;;;;;;4916322;29;20059;-90
2022/03/22 14:33:07;;;;;;;24.00;18.58;;;22.10;81.60;;;;;;4897943;29;20048;-91
2022/03/22 14:35:56;;;;;;;28.75;18.30;;;22.00;84.40;;;;;;4917137;29;20459;-89
2022/03/22 14:38:25;;;;;;;24.33;17.25;;;22.40;81.80;;;;;;4902335;23;20057;-93
2022/03/22 14:40:57;;;;;;;25.30;18.20;;;22.50;84.10;;;;;;4923761;23;20444;-92
2022/03/22 14:43:25;;;;;;;24.50;19.25;;;21.90;83.30;;;;;;4910319;29;20062;-91
2022/03/22 14:46:03;;;;;;;24.05;17.80;;;21.90;81.20;;;;;;4917576;23;20440;-92
2022/03/22 14:48:29;;;;;;;23.35;17.45;;;22.00;81.90;;;;;;4936488;23;20428;-93
2022/03/22 14:51:02;;;;;;;24.45;18.10;;;23.20;84.10;;;;;;4907149;23;20059;-93
2022/03/22 14:54:18;;;;;;;22.25;16.48;;;22.10;83.10;;;;;;5168397;23;20123;-96